Time;durP1;ratioP1;P1;durP2;ratioP2;P2;SDS_P1;SDS_P2;PMS_P1;PMS_P2;Temp;Humidity;BMP_temperature;BMP_pressure;BME280_temperature;BME280_humidity;BME280_pressure;Samples;Min_cycle;Max_cycle;Signal;HPM_P1;HPM_P2
2020/12/22 00:00:34;;;;;;;27.63;12.82;;;-0.40;81.70;;;;;;5039356;28;20032;-63
2020/12/22 00:03:00;;;;;;;33.33;17.77;;;-0.40;81.50;;;;;;5044432;28;20089;-63
2020/12/22 00:05:25;;;;;;;21.17;11.93;;;-0.50;81.20;;;;;;5052222;28;20384;-63
2020/12/22 00:07:51;;;;;;;17.83;8.88;;;-0.50;81.50;;;;;;5052766;28;20402;-62
2020/12/22 00:10:17;;;;;;;13.80;6.75;;;-0.50;81.60;;;;;;5053219;28;20033;-64
2020/12/22 00:12:43;;;;;;;21.83;8.18;;;-0.50;81.60;;;;;;5051910;28;20037;-64
2020/12/22 00:15:10;;;;;;;20.05;9.27;;;-0.50;81.50;;;;;;5049795;28;20108;-63
2020/12/22 00:17:45;;;;;;;20.70;9.63;;;-0.50;81.50;;;;;;5051208;28;20035;-64
2020/12/22 00:20:12;;;;;;;21.98;10.27;;;-0.50;81.60;;;;;;5048992;28;20060;-65
2020/12/22 00:22:38;;;;;;;24.33;11.55;;;-0.50;81.60;;;;;;5048513;28;20090;-64
2020/12/22 00:25:04;;;;;;;22.40;11.43;;;-0.50;81.50;;;;;;5046523;28;20025;-64
2020/12/22 00:27:33;;;;;;;23.17;12.00;;;-0.50;81.70;;;;;;5044841;28;20041;-64
2020/12/22 00:30:05;;;;;;;30.90;13.32;;;-0.60;81.70;;;;;;5043142;28;20025;-64
2020/12/22 00:32:35;;;;;;;23.17;10.95;;;-0.60;81.60;;;;;;5062160;28;20079;-64
2020/12/22 00:35:02;;;;;;;23.45;12.13;;;-0.60;81.60;;;;;;5039265;28;20032;-64
2020/12/22 00:37:28;;;;;;;19.38;9.55;;;-0.50;82.10;;;;;;5052215;28;20028;-64
2020/12/22 00:39:53;;;;;;;20.42;9.95;;;-0.60;82.00;;;;;;5049280;28;20021;-64
2020/12/22 00:42:19;;;;;;;25.98;13.48;;;-0.60;81.80;;;;;;5045456;28;20036;-64
2020/12/22 00:44:45;;;;;;;23.08;10.93;;;-0.50;82.10;;;;;;5051045;28;20032;-64
2020/12/22 00:47:11;;;;;;;20.27;10.23;;;-0.50;82.20;;;;;;5042551;28;20503;-65
2020/12/22 00:49:37;;;;;;;21.48;11.43;;;-0.50;82.00;;;;;;5050768;28;20082;-65
2020/12/22 00:52:03;;;;;;;28.08;14.30;;;-0.50;81.80;;;;;;5043224;28;20037;-64
2020/12/22 00:54:28;;;;;;;25.73;12.50;;;-0.50;81.90;;;;;;5049121;28;20028;-65
2020/12/22 00:56:55;;;;;;;32.55;17.75;;;-0.50;82.10;;;;;;5045769;28;20029;-65
2020/12/22 00:59:20;;;;;;;41.00;21.70;;;-0.40;82.20;;;;;;5050639;28;20083;-64
2020/12/22 01:01:46;;;;;;;30.02;16.05;;;-0.40;82.30;;;;;;5042239;28;20057;-65
2020/12/22 01:04:12;;;;;;;27.25;11.68;;;-0.40;82.30;;;;;;5047157;28;20037;-64
2020/12/22 01:06:38;;;;;;;22.40;10.38;;;-0.30;82.10;;;;;;5040898;28;20372;-65
2020/12/22 01:09:05;;;;;;;22.55;10.88;;;-0.40;81.70;;;;;;5045499;28;20079;-64
2020/12/22 01:11:35;;;;;;;21.02;10.07;;;-0.40;81.70;;;;;;5048568;28;20120;-65
2020/12/22 01:14:02;;;;;;;30.65;15.05;;;-0.40;81.70;;;;;;5051634;28;20111;-64
2020/12/22 01:16:27;;;;;;;35.95;16.92;;;-0.40;81.80;;;;;;5039222;28;20088;-66
2020/12/22 01:18:53;;;;;;;49.42;28.10;;;-0.40;81.80;;;;;;5044373;28;20052;-68
2020/12/22 01:21:20;;;;;;;41.55;25.08;;;-0.40;81.80;;;;;;5045726;28;20029;-64
2020/12/22 01:23:46;;;;;;;31.63;18.58;;;-0.50;81.50;;;;;;5049495;28;20037;-63
2020/12/22 01:26:12;;;;;;;33.63;19.80;;;-0.50;81.80;;;;;;5049369;28;20055;-62
2020/12/22 01:28:38;;;;;;;33.33;19.83;;;-0.50;82.00;;;;;;5045428;28;20033;-63
2020/12/22 01:31:03;;;;;;;30.98;15.75;;;-0.50;82.00;;;;;;5041477;28;20108;-63
2020/12/22 01:33:29;;;;;;;49.58;28.35;;;-0.40;82.10;;;;;;5047702;28;20025;-63
2020/12/22 01:35:55;;;;;;;67.30;43.70;;;-0.50;81.90;;;;;;5040739;28;20029;-63
2020/12/22 01:38:21;;;;;;;85.15;45.22;;;-0.50;81.90;;;;;;5035439;28;20132;-63
2020/12/22 01:40:50;;;;;;;49.78;23.08;;;-0.50;82.10;;;;;;5044136;28;20022;-67
2020/12/22 01:43:16;;;;;;;31.38;17.08;;;-0.50;81.80;;;;;;5038436;28;20033;-67
2020/12/22 01:45:42;;;;;;;33.22;19.25;;;-0.60;81.70;;;;;;5044859;28;20025;-66
2020/12/22 01:48:09;;;;;;;27.73;16.02;;;-0.50;82.00;;;;;;5045707;28;20049;-66
2020/12/22 01:50:35;;;;;;;24.65;13.10;;;-0.60;82.10;;;;;;5036562;28;20037;-67
2020/12/22 01:53:01;;;;;;;24.30;12.50;;;-0.60;82.10;;;;;;5049715;28;20074;-64
2020/12/22 01:55:26;;;;;;;29.90;13.95;;;-0.60;82.10;;;;;;5041762;28;20108;-65
2020/12/22 01:57:52;;;;;;;37.65;17.35;;;-0.50;82.30;;;;;;5049176;28;20135;-65
2020/12/22 02:00:18;;;;;;;35.47;16.88;;;-0.60;82.30;;;;;;5048408;28;20029;-65
2020/12/22 02:02:44;;;;;;;46.55;21.95;;;-0.50;82.50;;;;;;5045929;28;20488;-65
2020/12/22 02:05:09;;;;;;;41.88;18.20;;;-0.50;82.50;;;;;;5033271;28;20028;-68
2020/12/22 02:07:36;;;;;;;49.45;21.55;;;-0.50;82.50;;;;;;5043079;28;20029;-67
2020/12/22 02:10:03;;;;;;;35.95;17.60;;;-0.50;82.50;;;;;;5047557;28;20449;-66
2020/12/22 02:12:28;;;;;;;29.80;14.75;;;-0.40;82.60;;;;;;5051688;28;20051;-66
2020/12/22 02:14:54;;;;;;;31.63;15.18;;;-0.40;82.50;;;;;;5057428;28;20130;-66
2020/12/22 02:17:20;;;;;;;31.80;13.95;;;-0.50;82.30;;;;;;5053180;28;20037;-68
2020/12/22 02:19:46;;;;;;;31.25;15.52;;;-0.50;82.30;;;;;;5050959;28;20379;-66
2020/12/22 02:22:11;;;;;;;34.15;15.63;;;-0.50;82.30;;;;;;5053353;28;20031;-66
2020/12/22 02:24:37;;;;;;;32.08;15.20;;;-0.50;82.30;;;;;;5057921;28;20021;-66
2020/12/22 02:27:04;;;;;;;32.92;14.98;;;-0.50;82.40;;;;;;5049569;28;20043;-66
2020/12/22 02:29:31;;;;;;;37.97;16.73;;;-0.60;82.40;;;;;;5055198;28;20071;-66
2020/12/22 02:32:00;;;;;;;35.83;16.02;;;-0.60;82.70;;;;;;5056735;28;20060;-66
2020/12/22 02:34:26;;;;;;;37.30;15.00;;;-0.60;82.90;;;;;;5058379;28;20108;-66
2020/12/22 02:36:52;;;;;;;33.83;14.88;;;-0.50;82.90;;;;;;5054024;28;20025;-66
2020/12/22 02:39:18;;;;;;;33.35;15.02;;;-0.50;82.70;;;;;;5054745;28;20028;-67
2020/12/22 02:41:43;;;;;;;37.53;15.43;;;-0.60;82.70;;;;;;5045685;28;20049;-65
2020/12/22 02:44:09;;;;;;;38.78;15.63;;;-0.50;82.90;;;;;;5058026;28;20395;-68
2020/12/22 02:46:35;;;;;;;37.10;15.70;;;-0.60;82.80;;;;;;5055011;28;20124;-67
2020/12/22 02:49:04;;;;;;;38.35;16.63;;;-0.60;83.00;;;;;;5055709;28;20056;-67
2020/12/22 02:51:33;;;;;;;40.50;16.17;;;-0.60;83.10;;;;;;5049827;28;20029;-67
2020/12/22 02:53:59;;;;;;;34.95;15.85;;;-0.60;83.40;;;;;;5053665;28;20596;-66
2020/12/22 02:56:25;;;;;;;41.78;16.67;;;-0.50;83.50;;;;;;5053507;28;21632;-66
2020/12/22 02:58:51;;;;;;;43.08;18.48;;;-0.50;83.60;;;;;;5051266;28;20390;-66
2020/12/22 03:01:20;;;;;;;36.38;15.48;;;-0.50;83.60;;;;;;5056344;28;20058;-65
2020/12/22 03:03:46;;;;;;;39.25;15.55;;;-0.40;83.60;;;;;;5056566;28;20093;-66
2020/12/22 03:06:12;;;;;;;36.38;17.13;;;-0.40;83.30;;;;;;5047571;28;20466;-65
2020/12/22 03:08:38;;;;;;;44.58;20.33;;;-0.50;83.30;;;;;;5057680;28;20031;-68
2020/12/22 03:11:03;;;;;;;45.28;19.92;;;-0.50;83.70;;;;;;5053287;28;20514;-67
2020/12/22 03:13:29;;;;;;;41.00;17.70;;;-0.40;84.00;;;;;;5057735;28;20033;-66
2020/12/22 03:15:55;;;;;;;45.35;18.30;;;-0.40;83.70;;;;;;5056041;28;20031;-66
2020/12/22 03:18:21;;;;;;;38.28;17.77;;;-0.40;83.70;;;;;;5057826;28;20035;-66
2020/12/22 03:20:47;;;;;;;43.28;18.15;;;-0.30;83.60;;;;;;5055201;28;20025;-66
2020/12/22 03:23:13;;;;;;;43.60;19.30;;;-0.40;83.60;;;;;;5047480;28;20028;-67
2020/12/22 03:25:39;;;;;;;44.42;17.33;;;-0.40;83.70;;;;;;5051267;28;20025;-67
2020/12/22 03:28:04;;;;;;;40.63;16.95;;;-0.30;83.90;;;;;;5047366;28;20388;-66
2020/12/22 03:30:30;;;;;;;42.58;19.35;;;-0.30;83.90;;;;;;5051839;28;20053;-66
2020/12/22 03:32:56;;;;;;;45.50;22.58;;;-0.30;83.90;;;;;;5042490;28;20079;-66
2020/12/22 03:35:21;;;;;;;49.85;22.38;;;-0.30;83.90;;;;;;5052082;28;20033;-67
2020/12/22 03:37:47;;;;;;;53.78;28.77;;;-0.30;83.90;;;;;;5042821;28;20033;-66
2020/12/22 03:40:13;;;;;;;73.80;40.20;;;-0.20;84.10;;;;;;5041773;28;20026;-66
2020/12/22 03:42:40;;;;;;;54.83;32.15;;;-0.20;84.10;;;;;;5053049;28;21716;-66
2020/12/22 03:45:07;;;;;;;54.55;30.13;;;-0.20;84.20;;;;;;5050837;28;20029;-69
2020/12/22 03:47:34;;;;;;;64.05;33.17;;;-0.20;84.20;;;;;;5041730;28;20072;-66
2020/12/22 03:50:00;;;;;;;60.15;31.95;;;-0.20;84.20;;;;;;5044117;28;20030;-62
2020/12/22 03:52:26;;;;;;;54.13;28.15;;;-0.20;84.10;;;;;;5049205;28;20032;-62
2020/12/22 03:54:51;;;;;;;51.63;27.80;;;-0.10;84.20;;;;;;5044516;28;20036;-63
2020/12/22 03:57:17;;;;;;;54.65;27.30;;;-0.20;84.20;;;;;;5040927;28;20064;-63
2020/12/22 03:59:44;;;;;;;62.55;26.40;;;-0.10;84.30;;;;;;5034854;28;20029;-69
2020/12/22 04:02:10;;;;;;;51.10;20.25;;;-0.10;84.40;;;;;;5036558;28;20056;-63
2020/12/22 04:04:36;;;;;;;44.33;20.50;;;-0.10;84.50;;;;;;5039814;28;20030;-63
2020/12/22 04:07:01;;;;;;;39.60;19.67;;;-0.10;84.60;;;;;;5047397;28;20467;-62
2020/12/22 04:09:27;;;;;;;45.97;19.88;;;0.00;84.70;;;;;;5045148;28;20492;-63
2020/12/22 04:11:53;;;;;;;47.75;22.10;;;0.00;84.70;;;;;;5051804;28;20533;-63
2020/12/22 04:14:20;;;;;;;60.40;24.27;;;0.10;84.70;;;;;;5037098;28;20164;-63
2020/12/22 04:16:47;;;;;;;48.20;20.23;;;0.10;84.70;;;;;;5037629;28;20032;-63
2020/12/22 04:19:13;;;;;;;49.05;21.33;;;0.10;84.70;;;;;;5046794;28;20032;-63
2020/12/22 04:21:39;;;;;;;48.08;20.58;;;0.10;84.60;;;;;;5051578;28;20449;-62
2020/12/22 04:24:05;;;;;;;60.65;24.98;;;0.10;84.60;;;;;;5046539;28;20124;-64
2020/12/22 04:26:32;;;;;;;69.53;27.48;;;0.10;84.60;;;;;;5050638;28;20053;-61
2020/12/22 04:28:58;;;;;;;60.08;24.80;;;0.10;84.60;;;;;;5043083;28;20431;-62
2020/12/22 04:31:24;;;;;;;53.80;22.25;;;0.20;84.70;;;;;;5041104;28;20541;-69
2020/12/22 04:33:51;;;;;;;57.15;23.83;;;0.20;84.70;;;;;;5046157;28;20060;-63
2020/12/22 04:36:18;;;;;;;62.97;26.08;;;0.20;84.70;;;;;;5045671;28;20021;-62
2020/12/22 04:38:44;;;;;;;55.28;26.00;;;0.20;84.70;;;;;;5046805;28;20099;-63
2020/12/22 04:41:15;;;;;;;55.35;25.38;;;0.20;84.70;;;;;;5049515;28;20111;-64
2020/12/22 04:43:42;;;;;;;41.53;18.52;;;0.20;84.80;;;;;;5045950;28;20156;-62
2020/12/22 04:46:08;;;;;;;47.83;20.63;;;0.30;84.70;;;;;;5050410;28;20124;-63
2020/12/22 04:48:38;;;;;;;48.53;23.15;;;0.20;84.60;;;;;;5032733;28;20502;-64
2020/12/22 04:51:08;;;;;;;51.13;22.70;;;0.30;84.70;;;;;;5041844;28;20052;-63
2020/12/22 04:53:35;;;;;;;48.88;22.50;;;0.30;84.70;;;;;;5048068;28;20055;-64
2020/12/22 04:56:08;;;;;;;50.35;22.35;;;0.30;84.70;;;;;;5039796;28;20029;-64
2020/12/22 04:58:35;;;;;;;49.53;21.13;;;0.30;84.60;;;;;;5050909;28;20037;-64
2020/12/22 05:01:01;;;;;;;51.47;23.17;;;0.30;84.70;;;;;;5046942;28;20065;-64
2020/12/22 05:03:27;;;;;;;49.95;23.77;;;0.30;84.70;;;;;;5043021;28;20032;-64
2020/12/22 05:05:54;;;;;;;56.47;26.15;;;0.30;84.70;;;;;;5051209;28;20021;-64
2020/12/22 05:08:21;;;;;;;59.35;26.63;;;0.30;84.90;;;;;;5043193;28;20102;-64
2020/12/22 05:10:48;;;;;;;61.85;28.13;;;0.30;84.90;;;;;;5039311;28;20029;-64
2020/12/22 05:13:16;;;;;;;62.15;26.23;;;0.30;84.60;;;;;;5046615;28;20039;-64
2020/12/22 05:15:50;;;;;;;57.92;25.95;;;0.30;84.80;;;;;;5051556;28;20069;-63
2020/12/22 05:18:18;;;;;;;59.63;29.75;;;0.30;84.70;;;;;;5048759;28;20074;-62
2020/12/22 05:20:46;;;;;;;57.63;28.38;;;0.30;84.80;;;;;;5047786;28;20036;-63
2020/12/22 05:23:22;;;;;;;55.08;25.30;;;0.40;84.90;;;;;;5050744;28;20080;-63
2020/12/22 05:25:50;;;;;;;76.55;32.85;;;0.40;84.80;;;;;;5041608;28;20025;-62
2020/12/22 05:28:20;;;;;;;59.40;25.35;;;0.50;84.70;;;;;;5050986;28;20494;-64
2020/12/22 05:30:49;;;;;;;54.30;26.80;;;0.50;84.70;;;;;;5048483;28;20025;-63
2020/12/22 05:33:15;;;;;;;56.00;24.65;;;0.50;84.50;;;;;;5036893;28;20966;-66
2020/12/22 05:35:45;;;;;;;59.67;26.52;;;0.40;84.20;;;;;;5038927;28;20035;-65
2020/12/22 05:38:12;;;;;;;62.90;26.30;;;0.40;84.10;;;;;;5044205;28;20026;-64
2020/12/22 05:40:42;;;;;;;61.10;24.27;;;0.40;84.20;;;;;;5042593;28;20128;-64
2020/12/22 05:43:09;;;;;;;77.20;34.50;;;0.30;84.20;;;;;;5034666;28;20025;-66
2020/12/22 05:45:37;;;;;;;88.35;46.70;;;0.30;84.20;;;;;;5042073;28;20029;-64
2020/12/22 05:48:05;;;;;;;53.05;23.13;;;0.30;84.40;;;;;;5032891;28;20041;-65
2020/12/22 05:50:32;;;;;;;60.40;25.73;;;0.30;84.30;;;;;;5033862;28;20087;-64
2020/12/22 05:52:58;;;;;;;62.75;27.95;;;0.30;84.30;;;;;;5049231;28;20025;-64
2020/12/22 05:55:34;;;;;;;70.78;30.55;;;0.30;84.20;;;;;;5045564;28;20029;-63
2020/12/22 05:58:11;;;;;;;69.72;30.33;;;0.20;84.10;;;;;;5043717;28;20033;-63
2020/12/22 06:00:39;;;;;;;58.50;24.45;;;0.20;84.40;;;;;;5045003;28;20033;-65
2020/12/22 06:03:15;;;;;;;53.42;24.00;;;0.20;84.40;;;;;;5034661;28;20450;-65
2020/12/22 06:05:43;;;;;;;68.57;29.00;;;0.20;84.60;;;;;;5046343;28;20029;-66
2020/12/22 06:08:11;;;;;;;62.80;26.77;;;0.20;84.60;;;;;;5046771;28;20537;-65
2020/12/22 06:10:39;;;;;;;54.97;24.88;;;0.20;84.40;;;;;;5038661;28;20075;-66
2020/12/22 06:13:06;;;;;;;53.22;22.83;;;0.20;84.40;;;;;;5035958;28;20037;-66
2020/12/22 06:15:33;;;;;;;52.05;24.60;;;0.20;84.60;;;;;;5036160;28;20033;-65
2020/12/22 06:17:59;;;;;;;56.90;25.55;;;0.20;84.50;;;;;;5037556;28;20045;-66
2020/12/22 06:20:27;;;;;;;52.35;22.02;;;0.20;84.40;;;;;;5049903;28;20521;-66
2020/12/22 06:23:07;;;;;;;62.95;27.40;;;0.20;84.30;;;;;;5050574;28;20032;-65
2020/12/22 06:25:36;;;;;;;81.60;38.70;;;0.20;84.40;;;;;;5032657;28;20026;-66
2020/12/22 06:28:03;;;;;;;72.90;32.90;;;0.20;84.30;;;;;;5044452;28;20041;-63
2020/12/22 06:30:35;;;;;;;68.03;28.25;;;0.10;84.30;;;;;;5043768;28;20032;-65
2020/12/22 06:33:18;;;;;;;70.13;30.92;;;0.10;84.60;;;;;;5035081;28;20025;-64
2020/12/22 06:36:13;;;;;;;75.65;34.55;;;0.20;84.90;;;;;;5041180;28;20029;-65
2020/12/22 06:38:47;;;;;;;67.93;28.90;;;0.20;84.80;;;;;;5036377;28;20037;-65
2020/12/22 06:41:26;;;;;;;64.15;25.52;;;0.20;84.90;;;;;;5034179;28;20033;-76
2020/12/22 06:43:55;;;;;;;53.65;24.58;;;0.20;84.80;;;;;;5038406;28;20036;-64
2020/12/22 06:46:33;;;;;;;59.08;24.30;;;0.20;84.90;;;;;;5041453;28;20037;-64
2020/12/22 06:49:00;;;;;;;60.92;25.13;;;0.20;85.00;;;;;;5044224;28;20498;-67
2020/12/22 06:51:34;;;;;;;62.58;28.45;;;0.20;84.90;;;;;;5056032;28;20118;-63
2020/12/22 06:54:04;;;;;;;73.40;28.40;;;0.20;84.80;;;;;;5047670;28;20036;-65
2020/12/22 06:56:54;;;;;;;57.15;22.17;;;0.30;85.00;;;;;;5053559;28;20086;-65
2020/12/22 06:59:47;;;;;;;67.25;30.45;;;0.30;84.80;;;;;;5050237;28;20083;-74
2020/12/22 07:02:32;;;;;;;75.00;34.13;;;0.30;84.70;;;;;;5047133;28;20120;-64
2020/12/22 07:04:59;;;;;;;82.82;36.83;;;0.30;84.90;;;;;;5045529;28;20029;-65
2020/12/22 07:07:25;;;;;;;70.75;29.05;;;0.30;84.90;;;;;;5041923;28;20041;-73
2020/12/22 07:10:06;;;;;;;89.60;35.72;;;0.30;85.00;;;;;;5050464;28;20048;-71
2020/12/22 07:12:33;;;;;;;63.15;24.85;;;0.30;84.80;;;;;;5047855;28;20566;-70
2020/12/22 07:14:59;;;;;;;64.85;26.23;;;0.40;84.70;;;;;;5044523;28;20025;-69
2020/12/22 07:17:25;;;;;;;63.75;26.23;;;0.30;84.60;;;;;;5050554;28;20040;-70
2020/12/22 07:19:55;;;;;;;55.65;24.08;;;0.30;84.80;;;;;;5042177;28;20043;-78
2020/12/22 07:22:23;;;;;;;49.08;19.90;;;0.30;84.70;;;;;;5042950;28;20037;-72
2020/12/22 07:24:49;;;;;;;56.72;23.50;;;0.30;84.40;;;;;;5041897;28;20029;-70
2020/12/22 07:27:15;;;;;;;51.00;20.98;;;0.30;84.40;;;;;;5034880;28;20073;-71
2020/12/22 07:29:42;;;;;;;50.25;21.45;;;0.30;84.30;;;;;;5043513;28;20063;-71
2020/12/22 07:32:09;;;;;;;64.45;24.92;;;0.30;84.30;;;;;;5033289;28;20032;-71
2020/12/22 07:34:36;;;;;;;51.83;21.80;;;0.20;84.30;;;;;;5042653;28;20036;-74
2020/12/22 07:37:12;;;;;;;62.03;23.83;;;0.20;84.30;;;;;;5042980;28;20028;-69
2020/12/22 07:39:39;;;;;;;55.78;22.10;;;0.20;84.50;;;;;;5038567;28;20025;-70
2020/12/22 07:42:12;;;;;;;58.60;24.08;;;0.20;84.70;;;;;;5040849;28;20116;-69
2020/12/22 07:44:43;;;;;;;80.25;33.65;;;0.20;84.80;;;;;;5042097;28;20040;-71
2020/12/22 07:47:10;;;;;;;60.80;28.25;;;0.20;84.80;;;;;;5036602;28;20030;-71
2020/12/22 07:49:39;;;;;;;61.58;27.23;;;0.30;84.90;;;;;;5043568;28;20578;-72
2020/12/22 07:52:05;;;;;;;56.92;24.83;;;0.30;85.20;;;;;;5046109;28;20021;-72
2020/12/22 07:54:31;;;;;;;54.25;24.08;;;0.30;85.10;;;;;;5045736;28;20037;-72
2020/12/22 07:56:58;;;;;;;62.28;27.85;;;0.30;84.70;;;;;;5045655;28;20021;-77
2020/12/22 07:59:25;;;;;;;86.85;33.55;;;0.30;86.00;;;;;;5044982;28;20032;-72
2020/12/22 08:01:51;;;;;;;64.55;25.13;;;0.30;85.60;;;;;;5046054;28;20059;-70
2020/12/22 08:04:28;;;;;;;52.92;22.60;;;0.50;85.70;;;;;;5045939;28;20033;-72
2020/12/22 08:06:59;;;;;;;68.57;25.80;;;0.50;85.10;;;;;;5039396;28;20025;-73
2020/12/22 08:09:27;;;;;;;79.28;33.63;;;0.40;85.00;;;;;;5039087;28;20048;-70
2020/12/22 08:11:54;;;;;;;68.10;30.15;;;0.40;84.90;;;;;;5045490;28;20028;-72
2020/12/22 08:14:21;;;;;;;59.85;27.30;;;0.40;84.70;;;;;;5041515;28;20033;-71
2020/12/22 08:16:50;;;;;;;56.45;23.85;;;0.40;84.40;;;;;;5041591;28;20120;-72
2020/12/22 08:19:17;;;;;;;58.95;24.13;;;0.30;84.60;;;;;;5040573;28;20368;-70
2020/12/22 08:21:43;;;;;;;63.88;26.90;;;0.40;84.80;;;;;;5048778;28;20111;-71
2020/12/22 08:24:10;;;;;;;71.65;29.45;;;0.40;84.80;;;;;;5046799;28;20041;-71
2020/12/22 08:26:35;;;;;;;53.97;25.30;;;0.30;84.80;;;;;;5046097;28;20041;-71
2020/12/22 08:29:03;;;;;;;65.88;27.15;;;0.30;84.90;;;;;;5042203;28;20029;-71
2020/12/22 08:31:32;;;;;;;74.65;31.17;;;0.30;85.00;;;;;;5044974;28;20297;-71
2020/12/22 08:33:59;;;;;;;85.15;36.25;;;0.30;85.10;;;;;;5047895;28;20121;-70
2020/12/22 08:36:29;;;;;;;70.30;28.70;;;0.40;85.30;;;;;;5040091;28;20029;-71
2020/12/22 08:39:14;;;;;;;46.67;20.17;;;0.40;85.30;;;;;;5046181;28;20021;-70
2020/12/22 08:41:42;;;;;;;61.30;28.63;;;0.40;85.10;;;;;;5059441;28;20089;-75
2020/12/22 08:44:10;;;;;;;68.78;26.10;;;0.40;84.90;;;;;;5053449;28;20033;-70
2020/12/22 08:46:40;;;;;;;61.90;26.80;;;0.40;85.10;;;;;;5061330;28;20033;-70
2020/12/22 08:49:10;;;;;;;76.60;32.78;;;0.40;85.20;;;;;;5052867;28;20036;-70
2020/12/22 08:51:36;;;;;;;66.68;26.77;;;0.30;85.20;;;;;;5050615;28;20025;-71
2020/12/22 08:54:02;;;;;;;57.42;25.35;;;0.30;85.50;;;;;;5048319;28;20025;-72
2020/12/22 08:56:29;;;;;;;84.45;36.30;;;0.40;85.70;;;;;;5044975;28;20488;-71
2020/12/22 08:59:03;;;;;;;70.85;32.58;;;0.40;85.70;;;;;;5054051;28;20375;-70
2020/12/22 09:01:49;;;;;;;85.97;33.88;;;0.40;85.70;;;;;;5039348;28;20049;-71
2020/12/22 09:04:15;;;;;;;52.55;24.73;;;0.50;86.00;;;;;;5048596;28;20483;-72
2020/12/22 09:06:46;;;;;;;36.65;17.02;;;0.50;85.70;;;;;;5039516;28;20036;-71
2020/12/22 09:09:16;;;;;;;38.83;16.50;;;0.50;85.60;;;;;;5036953;28;20116;-72
2020/12/22 09:11:43;;;;;;;40.95;18.40;;;0.50;85.20;;;;;;5046740;28;20383;-78
2020/12/22 09:14:11;;;;;;;41.30;17.92;;;0.50;85.30;;;;;;5050007;28;20029;-71
2020/12/22 09:16:50;;;;;;;39.65;17.80;;;0.50;85.30;;;;;;5052273;28;20391;-70
2020/12/22 09:19:47;;;;;;;37.63;17.08;;;0.50;85.20;;;;;;5039343;28;20017;-67
2020/12/22 09:22:14;;;;;;;37.83;19.00;;;0.50;85.20;;;;;;5040229;28;20059;-67
2020/12/22 09:24:41;;;;;;;37.83;17.80;;;0.50;85.40;;;;;;5044568;28;20071;-69
2020/12/22 09:27:09;;;;;;;38.58;19.23;;;0.60;85.80;;;;;;5041851;28;20467;-66
2020/12/22 09:29:37;;;;;;;38.63;17.88;;;0.70;85.80;;;;;;5037834;28;20050;-69
2020/12/22 09:32:05;;;;;;;34.20;15.95;;;0.70;85.50;;;;;;5035905;28;20030;-71
2020/12/22 09:34:33;;;;;;;46.25;23.58;;;0.60;85.40;;;;;;5040722;28;20095;-71
2020/12/22 09:37:05;;;;;;;46.13;19.98;;;0.70;85.50;;;;;;5042252;28;20029;-79
2020/12/22 09:39:33;;;;;;;40.97;19.10;;;0.70;85.40;;;;;;5043538;28;20072;-70
2020/12/22 09:42:00;;;;;;;51.92;23.33;;;0.70;85.40;;;;;;5042545;28;20612;-70
2020/12/22 09:44:26;;;;;;;42.33;19.13;;;0.70;85.20;;;;;;5035956;28;20107;-71
2020/12/22 09:46:53;;;;;;;50.80;22.13;;;0.70;85.10;;;;;;5038004;28;20037;-69
2020/12/22 09:49:20;;;;;;;47.13;21.23;;;0.70;85.00;;;;;;5038972;28;20037;-80
2020/12/22 09:51:46;;;;;;;53.05;23.52;;;0.70;84.90;;;;;;5038984;28;20017;-67
2020/12/22 09:54:12;;;;;;;50.40;23.55;;;0.60;84.70;;;;;;5035900;28;20212;-67
2020/12/22 09:56:39;;;;;;;63.53;30.15;;;0.60;85.00;;;;;;5037079;28;20036;-70
2020/12/22 09:59:05;;;;;;;54.15;26.50;;;0.60;85.00;;;;;;5047441;28;20028;-68
2020/12/22 10:01:31;;;;;;;42.97;19.80;;;0.60;85.20;;;;;;5043024;28;20049;-68
2020/12/22 10:03:57;;;;;;;33.15;15.55;;;0.60;85.00;;;;;;5043440;28;20029;-68
2020/12/22 10:06:24;;;;;;;38.28;18.70;;;0.60;84.90;;;;;;5042370;28;20075;-68
2020/12/22 10:08:51;;;;;;;36.17;18.02;;;0.60;85.00;;;;;;5038963;28;20037;-68
2020/12/22 10:11:18;;;;;;;46.58;23.85;;;0.50;84.80;;;;;;5041039;28;20079;-68
2020/12/22 10:13:45;;;;;;;68.47;28.35;;;0.60;85.10;;;;;;5051788;28;20108;-69
2020/12/22 10:16:22;;;;;;;131.38;52.80;;;0.60;85.20;;;;;;5038908;28;20032;-69
2020/12/22 10:18:48;;;;;;;65.47;30.15;;;0.60;85.30;;;;;;5051443;28;20032;-67
2020/12/22 10:21:17;;;;;;;53.05;26.35;;;0.60;85.30;;;;;;5052902;28;20067;-68
2020/12/22 10:23:43;;;;;;;44.58;22.58;;;0.60;85.40;;;;;;5034385;28;20383;-68
2020/12/22 10:26:14;;;;;;;42.03;22.02;;;0.60;85.40;;;;;;5045536;28;20032;-67
2020/12/22 10:28:42;;;;;;;59.28;27.77;;;0.60;85.00;;;;;;5051375;28;20017;-67
2020/12/22 10:31:18;;;;;;;48.67;22.02;;;0.60;85.00;;;;;;5045057;28;20025;-67
2020/12/22 10:33:45;;;;;;;49.20;21.63;;;0.50;85.10;;;;;;5055676;28;20021;-67
2020/12/22 10:36:13;;;;;;;60.03;25.98;;;0.50;85.60;;;;;;5056619;28;20424;-67
2020/12/22 10:38:39;;;;;;;36.30;17.05;;;0.50;84.80;;;;;;5056815;28;20039;-67
2020/12/22 10:41:05;;;;;;;35.03;17.55;;;0.50;85.10;;;;;;5055471;28;20441;-67
2020/12/22 10:43:30;;;;;;;35.80;15.93;;;0.50;85.20;;;;;;5056135;28;20359;-67
2020/12/22 10:45:57;;;;;;;72.45;30.00;;;0.50;85.30;;;;;;5055081;28;20078;-67
2020/12/22 10:48:23;;;;;;;49.80;24.27;;;0.60;85.20;;;;;;5056302;28;20033;-67
2020/12/22 10:50:49;;;;;;;55.25;24.40;;;0.60;85.10;;;;;;5054966;28;20482;-68
2020/12/22 10:53:14;;;;;;;49.15;21.95;;;0.60;85.10;;;;;;5055998;28;20021;-68
2020/12/22 10:55:40;;;;;;;61.85;29.65;;;0.50;85.20;;;;;;5055861;28;20021;-68
2020/12/22 10:58:07;;;;;;;53.17;25.08;;;0.60;85.40;;;;;;5054965;28;20043;-66
2020/12/22 11:00:33;;;;;;;38.05;19.67;;;0.60;85.30;;;;;;5054709;28;20037;-67
2020/12/22 11:03:02;;;;;;;41.92;20.50;;;0.60;85.00;;;;;;5054484;28;20049;-67
2020/12/22 11:08:12;;;;;;;49.97;23.27;;;0.50;85.20;;;;;;5055865;28;20163;-68
2020/12/22 11:10:38;;;;;;;49.72;24.20;;;0.50;85.30;;;;;;5055977;28;20104;-68
2020/12/22 11:13:04;;;;;;;68.88;32.03;;;0.50;85.30;;;;;;5054257;28;20459;-68
2020/12/22 11:15:31;;;;;;;46.63;23.30;;;0.60;85.50;;;;;;5055988;28;20115;-68
2020/12/22 11:17:57;;;;;;;54.63;25.80;;;0.50;85.20;;;;;;5055921;28;20109;-68
2020/12/22 11:20:22;;;;;;;40.50;18.08;;;0.50;85.00;;;;;;5054670;28;20443;-67
2020/12/22 11:22:49;;;;;;;78.95;33.03;;;0.50;84.80;;;;;;5054756;28;20115;-67
2020/12/22 11:25:18;;;;;;;71.38;26.27;;;0.40;84.60;;;;;;5054268;28;20052;-68
2020/12/22 11:27:45;;;;;;;49.08;22.67;;;0.40;84.70;;;;;;5055557;28;20033;-67
2020/12/22 11:30:10;;;;;;;41.85;18.75;;;0.30;84.60;;;;;;5055120;28;20025;-68
2020/12/22 11:32:36;;;;;;;39.58;19.80;;;0.30;84.60;;;;;;5055716;28;20356;-67
2020/12/22 11:35:03;;;;;;;76.88;31.50;;;0.30;85.20;;;;;;5055345;28;20021;-67
2020/12/22 11:37:29;;;;;;;70.90;30.55;;;0.30;85.40;;;;;;5055599;28;20087;-68
2020/12/22 11:39:55;;;;;;;64.60;27.23;;;0.30;85.50;;;;;;5055274;28;20025;-68
2020/12/22 11:42:21;;;;;;;84.50;35.28;;;0.30;85.80;;;;;;5054860;28;20036;-68
2020/12/22 11:44:46;;;;;;;47.78;23.65;;;0.40;85.90;;;;;;5054035;28;20033;-68
2020/12/22 11:47:12;;;;;;;37.15;18.00;;;0.40;85.90;;;;;;5055203;28;20061;-68
2020/12/22 11:49:38;;;;;;;42.92;21.80;;;0.50;85.40;;;;;;5053974;28;20071;-68
2020/12/22 11:52:04;;;;;;;35.47;16.55;;;0.40;84.90;;;;;;5055376;28;20025;-68
2020/12/22 11:54:30;;;;;;;33.78;17.05;;;0.40;84.80;;;;;;5054134;28;20028;-68
2020/12/22 11:56:56;;;;;;;42.58;18.75;;;0.40;85.00;;;;;;5055087;28;20049;-68
2020/12/22 11:59:21;;;;;;;39.58;18.50;;;0.30;85.20;;;;;;5053234;28;20390;-66
2020/12/22 12:01:47;;;;;;;53.20;23.23;;;0.30;85.60;;;;;;5055269;28;20053;-68
2020/12/22 12:04:13;;;;;;;58.83;26.65;;;0.40;85.70;;;;;;5054897;28;20360;-67
2020/12/22 12:06:48;;;;;;;61.30;27.70;;;0.40;85.70;;;;;;5055058;28;20033;-67
2020/12/22 12:09:15;;;;;;;45.95;23.10;;;0.40;85.70;;;;;;5053773;28;20021;-67
2020/12/22 12:11:41;;;;;;;39.22;19.98;;;0.40;85.20;;;;;;5053116;28;20078;-67
2020/12/22 12:14:07;;;;;;;40.35;20.27;;;0.40;85.30;;;;;;5053622;28;20025;-67
2020/12/22 12:16:33;;;;;;;41.75;21.05;;;0.30;85.20;;;;;;5054827;28;20382;-67
2020/12/22 12:18:59;;;;;;;31.92;17.05;;;0.30;85.30;;;;;;5053665;28;20359;-68
2020/12/22 12:21:26;;;;;;;46.42;24.05;;;0.30;85.30;;;;;;5054421;28;20082;-67
2020/12/22 12:23:51;;;;;;;41.55;20.02;;;0.30;85.50;;;;;;5054687;28;20025;-67
2020/12/22 12:26:17;;;;;;;62.50;28.63;;;0.30;85.30;;;;;;5052899;28;20108;-68
2020/12/22 12:28:43;;;;;;;51.20;23.55;;;0.30;85.40;;;;;;5053276;28;20021;-67
2020/12/22 12:31:13;;;;;;;36.80;19.17;;;0.30;85.60;;;;;;5054790;28;20033;-68
2020/12/22 12:33:39;;;;;;;39.90;19.98;;;0.40;85.70;;;;;;5052685;28;20554;-69
2020/12/22 12:36:07;;;;;;;50.90;23.25;;;0.40;85.60;;;;;;5053303;28;20137;-67
2020/12/22 12:38:33;;;;;;;44.95;21.83;;;0.40;85.50;;;;;;5052811;28;20471;-68